createdAt,value
2022-11-09T00:02:11.179Z,991.27
2022-11-09T00:07:15.445Z,991.22
2022-11-09T00:12:19.478Z,991.25
2022-11-09T00:17:23.676Z,991.09
2022-11-09T00:22:27.791Z,991.20
2022-11-09T00:27:31.984Z,990.99
2022-11-09T00:32:36.107Z,990.92
2022-11-09T00:37:40.364Z,991.05
2022-11-09T00:42:44.439Z,991.07
2022-11-09T00:47:48.600Z,990.97
2022-11-09T00:52:52.787Z,991.02
2022-11-09T00:57:56.924Z,991.00
2022-11-09T01:03:01.096Z,990.96
2022-11-09T01:08:05.236Z,990.84
2022-11-09T01:13:09.401Z,990.91
2022-11-09T01:18:13.545Z,990.89
2022-11-09T01:23:18.104Z,990.83
2022-11-09T01:28:21.910Z,990.88
2022-11-09T01:33:26.050Z,990.74
2022-11-09T01:38:30.188Z,990.91
2022-11-09T01:43:34.374Z,990.97
2022-11-09T01:48:38.545Z,990.95
2022-11-09T01:53:42.692Z,990.90
2022-11-09T01:58:47.681Z,990.88
2022-11-09T02:03:51.109Z,991.01
2022-11-09T02:08:55.183Z,990.90
2022-11-09T02:13:59.312Z,990.97
2022-11-09T02:19:03.492Z,990.80
2022-11-09T02:24:07.644Z,990.84
2022-11-09T02:29:11.838Z,990.83
2022-11-09T02:34:15.994Z,990.87
2022-11-09T02:39:20.132Z,990.76
2022-11-09T02:44:24.331Z,990.74
2022-11-09T02:49:28.467Z,990.74
2022-11-09T02:54:32.605Z,990.69
2022-11-09T02:59:36.755Z,990.65
2022-11-09T03:04:40.917Z,990.53
2022-11-09T03:09:45.092Z,990.36
2022-11-09T03:14:49.393Z,990.42
2022-11-09T03:19:53.420Z,990.47
2022-11-09T03:24:57.616Z,990.49
2022-11-09T03:30:01.732Z,990.61
2022-11-09T03:35:05.905Z,990.62
2022-11-09T03:40:10.045Z,990.77
2022-11-09T03:45:12.314Z,990.79
2022-11-09T03:50:16.505Z,990.78
2022-11-09T03:55:20.642Z,990.73
2022-11-09T04:00:24.791Z,990.87
2022-11-09T04:05:29.024Z,990.89
2022-11-09T04:10:33.100Z,990.79
2022-11-09T04:15:35.385Z,990.64
2022-11-09T04:20:39.523Z,990.07
2022-11-09T04:25:43.716Z,989.89
2022-11-09T04:30:47.889Z,989.78
2022-11-09T04:35:52.018Z,989.81
2022-11-09T04:40:56.178Z,989.88
2022-11-09T04:46:00.359Z,989.84
2022-11-09T04:51:04.479Z,989.91
2022-11-09T04:56:08.644Z,990.01
2022-11-09T05:01:12.822Z,990.24
2022-11-09T05:06:16.985Z,990.03
2022-11-09T05:11:21.146Z,989.87
2022-11-09T05:16:25.310Z,990.10
2022-11-09T05:21:29.485Z,989.87
2022-11-09T05:26:33.624Z,989.66
2022-11-09T05:31:37.810Z,989.44
2022-11-09T05:36:41.955Z,988.93
2022-11-09T05:41:46.119Z,989.01
2022-11-09T05:46:50.271Z,988.85
2022-11-09T05:51:54.424Z,989.12
2022-11-09T05:56:58.562Z,989.19
2022-11-09T06:02:02.810Z,989.28
2022-11-09T06:07:06.935Z,989.25
2022-11-09T06:12:11.085Z,989.16
2022-11-09T06:17:15.333Z,988.98
2022-11-09T06:22:19.367Z,988.90
2022-11-09T06:27:23.558Z,988.69
2022-11-09T06:32:27.693Z,988.59
2022-11-09T06:37:31.857Z,988.71
2022-11-09T06:42:36.112Z,988.86
2022-11-09T06:47:40.189Z,989.13
2022-11-09T06:52:44.359Z,989.15
2022-11-09T06:57:48.518Z,989.21
2022-11-09T07:02:52.672Z,989.17
2022-11-09T07:07:56.830Z,989.04
2022-11-09T07:13:01.014Z,989.06
2022-11-09T07:18:05.145Z,989.20
2022-11-09T07:23:09.324Z,989.21
2022-11-09T07:28:13.460Z,989.25
2022-11-09T07:33:17.606Z,989.37
2022-11-09T07:38:21.817Z,989.55
2022-11-09T07:43:25.969Z,989.64
2022-11-09T07:48:30.131Z,989.79
2022-11-09T07:53:34.263Z,990.19
2022-11-09T07:58:38.431Z,990.30
2022-11-09T08:03:42.579Z,990.35
2022-11-09T08:08:46.769Z,990.22
2022-11-09T08:13:50.909Z,990.08
2022-11-09T08:18:55.085Z,989.95
2022-11-09T08:23:59.225Z,989.85
2022-11-09T08:29:03.369Z,989.71
2022-11-09T08:34:07.571Z,989.59
2022-11-09T08:39:11.709Z,989.65
2022-11-09T08:44:15.904Z,989.57
2022-11-09T08:49:20.105Z,989.65
2022-11-09T08:54:24.198Z,989.69
2022-11-09T08:59:28.550Z,989.72
2022-11-09T09:04:32.514Z,989.99
2022-11-09T09:09:36.715Z,990.35
2022-11-09T09:14:40.843Z,990.69
2022-11-09T09:19:49.664Z,991.02
2022-11-09T09:24:49.198Z,991.32
2022-11-09T09:29:53.330Z,992.04
2022-11-09T09:34:57.507Z,992.49
2022-11-09T09:40:01.632Z,992.85
2022-11-09T09:45:03.884Z,993.37
2022-11-09T09:50:08.122Z,993.70
2022-11-09T09:55:12.236Z,993.81
2022-11-09T10:00:16.405Z,994.04
2022-11-09T10:05:20.559Z,994.32
2022-11-09T10:10:24.712Z,994.49
2022-11-09T10:15:28.867Z,994.69
2022-11-09T10:20:33.035Z,995.16
2022-11-09T10:26:02.276Z,995.27
2022-11-09T10:30:41.375Z,995.09
2022-11-09T10:35:45.510Z,995.07
2022-11-09T10:40:49.683Z,995.00
2022-11-09T10:45:53.833Z,995.19
2022-11-09T10:50:57.999Z,995.10
2022-11-09T10:56:02.166Z,995.14
2022-11-09T11:01:06.342Z,995.17
2022-11-09T11:06:10.466Z,995.43
2022-11-09T11:11:32.625Z,995.77
2022-11-09T11:16:18.804Z,995.78
2022-11-09T11:21:22.953Z,996.00
2022-11-09T11:26:27.088Z,996.30
2022-11-09T11:31:31.274Z,996.42
2022-11-09T11:36:35.407Z,996.70
2022-11-09T11:41:39.565Z,996.68
2022-11-09T11:46:43.736Z,996.90
2022-11-09T11:51:47.943Z,997.00
2022-11-09T11:56:52.159Z,997.14
2022-11-09T12:01:56.214Z,997.19
2022-11-09T12:07:00.511Z,997.29
2022-11-09T12:17:08.694Z,997.27
2022-11-09T12:22:12.868Z,997.42
2022-11-09T12:27:31.710Z,997.43
2022-11-09T12:32:21.167Z,997.40
2022-11-09T12:37:25.368Z,997.51
2022-11-09T12:42:29.531Z,997.43
2022-11-09T12:47:33.657Z,997.60
2022-11-09T12:52:37.858Z,997.60
2022-11-09T12:57:42.015Z,997.47
2022-11-09T13:02:46.169Z,997.44
2022-11-09T13:07:50.322Z,997.45
2022-11-09T13:12:54.452Z,997.60
2022-11-09T13:17:58.614Z,997.62
2022-11-09T13:23:02.805Z,997.73
2022-11-09T13:28:06.960Z,997.70
2022-11-09T13:33:11.130Z,997.85
2022-11-09T13:38:15.257Z,997.69
2022-11-09T13:43:19.764Z,997.79
2022-11-09T13:48:23.829Z,997.84
2022-11-09T13:53:27.735Z,997.71
2022-11-09T13:58:31.930Z,997.65
2022-11-09T14:03:36.110Z,997.78
2022-11-09T14:08:40.967Z,997.69
2022-11-09T14:13:44.391Z,997.78
2022-11-09T14:18:48.515Z,997.75
2022-11-09T14:23:52.736Z,997.65
2022-11-09T14:28:56.881Z,997.80
2022-11-09T14:34:01.060Z,997.80
2022-11-09T14:39:05.186Z,997.76
2022-11-09T14:44:09.364Z,997.87
2022-11-09T14:49:13.531Z,997.81
2022-11-09T14:54:17.651Z,997.93
2022-11-09T14:59:21.856Z,997.92
2022-11-09T15:04:26.008Z,998.05
2022-11-09T15:09:30.163Z,998.07
2022-11-09T15:14:32.403Z,998.05
2022-11-09T15:19:36.563Z,998.01
2022-11-09T15:24:45.971Z,998.07
2022-11-09T15:29:44.937Z,997.94
2022-11-09T15:34:49.066Z,997.97
2022-11-09T15:39:53.178Z,997.96
2022-11-09T15:44:57.422Z,997.90
2022-11-09T15:50:01.540Z,997.77
2022-11-09T15:55:05.705Z,997.73
2022-11-09T16:00:15.331Z,997.70
2022-11-09T16:05:14.036Z,997.53
2022-11-09T16:10:18.177Z,997.38
2022-11-09T16:15:22.341Z,997.36
2022-11-09T16:20:26.500Z,997.27
2022-11-09T16:25:30.650Z,997.27
2022-11-09T16:35:38.995Z,997.18
2022-11-09T16:40:43.124Z,997.17
2022-11-09T16:45:47.325Z,997.19
2022-11-09T16:50:51.495Z,997.16
2022-11-09T16:55:55.600Z,997.23
2022-11-09T17:01:11.547Z,997.37
2022-11-09T17:06:03.993Z,997.44
2022-11-09T17:11:08.103Z,997.39
2022-11-09T17:16:12.282Z,997.41
2022-11-09T17:21:16.398Z,997.64
2022-11-09T17:26:20.603Z,997.75
2022-11-09T17:31:24.746Z,997.80
2022-11-09T17:36:56.928Z,997.84
2022-11-09T17:41:33.100Z,997.88
2022-11-09T17:46:37.236Z,997.97
2022-11-09T17:51:41.409Z,998.17
2022-11-09T17:56:45.557Z,998.29
2022-11-09T18:01:49.711Z,998.52
2022-11-09T18:06:53.913Z,998.81
2022-11-09T18:11:58.024Z,998.95
2022-11-09T18:17:02.195Z,999.13
2022-11-09T18:22:11.454Z,999.25
2022-11-09T18:27:10.480Z,999.32
2022-11-09T18:32:14.642Z,999.34
2022-11-09T18:37:18.845Z,999.39
2022-11-09T18:42:22.979Z,999.40
2022-11-09T18:47:27.166Z,999.52
2022-11-09T18:52:31.318Z,999.57
2022-11-09T18:57:35.482Z,999.54
2022-11-09T19:02:39.680Z,999.63
2022-11-09T19:07:43.829Z,999.76
2022-11-09T19:12:47.960Z,999.68
2022-11-09T19:17:52.141Z,999.73
2022-11-09T19:22:56.287Z,999.67
2022-11-09T19:28:00.426Z,999.60
2022-11-09T19:33:04.595Z,999.68
2022-11-09T19:38:08.744Z,999.77
2022-11-09T19:43:12.943Z,999.84
2022-11-09T19:48:17.098Z,999.82
2022-11-09T19:53:21.274Z,999.92
2022-11-09T19:58:25.396Z,1000.07
2022-11-09T20:03:29.561Z,1000.12
2022-11-09T20:08:33.796Z,1000.19
2022-11-09T20:13:37.883Z,1000.36
2022-11-09T20:18:42.096Z,1000.47
2022-11-09T20:23:46.193Z,1000.42
2022-11-09T20:28:50.376Z,1000.41
2022-11-09T20:33:54.536Z,1000.46
2022-11-09T20:38:58.713Z,1000.57
2022-11-09T20:44:00.955Z,1000.62
2022-11-09T20:49:05.138Z,1000.53
2022-11-09T20:54:09.265Z,1000.59
2022-11-09T20:59:13.456Z,1000.51
2022-11-09T21:04:17.588Z,1000.49
2022-11-09T21:09:21.771Z,1000.37
2022-11-09T21:14:24.030Z,1000.40
2022-11-09T21:19:28.211Z,1000.47
2022-11-09T21:24:32.331Z,1000.39
2022-11-09T21:29:36.525Z,1000.38
2022-11-09T21:34:40.674Z,1000.44
2022-11-09T21:39:44.831Z,1000.49
2022-11-09T21:44:48.964Z,1000.33
2022-11-09T21:49:53.188Z,1000.22
2022-11-09T21:54:57.323Z,1000.16
2022-11-09T22:00:01.503Z,1000.24
2022-11-09T22:05:05.632Z,1000.16
2022-11-09T22:10:11.325Z,1000.13
2022-11-09T22:15:14.003Z,1000.06
2022-11-09T22:20:18.099Z,1000.16
2022-11-09T22:25:22.272Z,1000.10
2022-11-09T22:30:26.442Z,999.99
2022-11-09T22:35:30.786Z,999.86
2022-11-09T22:40:34.796Z,999.98
2022-11-09T22:45:38.944Z,1000.15
2022-11-09T22:50:43.093Z,1000.28
2022-11-09T22:55:47.264Z,1000.36
2022-11-09T23:00:51.425Z,1000.51
2022-11-09T23:05:55.606Z,1000.46
2022-11-09T23:10:59.755Z,1000.44
2022-11-09T23:16:03.909Z,1000.39
2022-11-09T23:21:08.064Z,1000.47
2022-11-09T23:26:12.243Z,1000.42
2022-11-09T23:31:16.618Z,1000.36
2022-11-09T23:36:22.539Z,1000.20
2022-11-09T23:41:24.731Z,1000.12
2022-11-09T23:46:28.882Z,1000.16
2022-11-09T23:51:33.010Z,1000.39
2022-11-09T23:56:37.176Z,1000.53
